Terminal Aerodrome Forecast
Issued by NWS Charleston, WV

Current Version | Previous Version | Graphics & Text | Print | Product List | Glossary On
Versions: 1 2 3 4 5 6 7 8 9 10 11 12 13 14 15 16 17 18 19 20 21
000
FTUS41 KRLX 271741
TAFCRW
TAF
KCRW 271741Z 2718/2818 22010KT P6SM VCSH BKN025
     FM271830 23010KT 5SM SHRA BKN035
      TEMPO 2719/2720 VRB10G25KT 3SM -TSRA OVC030CB
     FM272000 25010G16KT P6SM VCTS OVC035CB
     FM272200 25010KT P6SM SCT025
     FM280700 25010G15KT P6SM BKN011
     FM281200 25011G16KT P6SM BKN021
     FM281700 28011G16KT P6SM SCT035=

USA.gov is the U.S. government's official web portal to all federal, state and local government web resources and services.